Time;durP1;ratioP1;P1;durP2;ratioP2;P2;SDS_P1;SDS_P2;PMS_P1;PMS_P2;Temp;Humidity;BMP_temperature;BMP_pressure;BME280_temperature;BME280_humidity;BME280_pressure;Samples;Min_cycle;Max_cycle;Signal;HPM_P1;HPM_P2
2022/04/01 00:00:08;;;;;;;40.33;6.18;;;;;;;13.28;57.37;93499.13;6243885;23;20014;-83
2022/04/01 00:02:34;;;;;;;37.60;5.85;;;;;;;14.64;57.99;93672.94;6245664;22;20480;-82
2022/04/01 00:04:59;;;;;;;31.25;6.25;;;;;;;14.39;57.55;93679.38;6242963;23;20008;-83
2022/04/01 00:07:25;;;;;;;38.42;5.60;;;;;;;13.84;57.69;93590.00;6244680;22;20489;-83
2022/04/01 00:09:50;;;;;;;26.80;4.60;;;;;;;13.70;56.86;93562.91;6242626;23;20008;-82
2022/04/01 00:12:16;;;;;;;19.15;4.85;;;;;;;13.95;56.81;93651.66;6243985;23;20337;-83
2022/04/01 00:14:41;;;;;;;16.10;3.63;;;;;;;13.37;59.37;93537.09;6243396;23;20030;-83
2022/04/01 00:17:07;;;;;;;23.02;4.20;;;;;;;13.33;58.06;93573.50;6243482;23;20008;-83
2022/04/01 00:19:32;;;;;;;30.25;4.13;;;;;;;13.67;57.88;93601.63;6244968;22;20054;-83
2022/04/01 00:21:58;;;;;;;30.60;4.93;;;;;;;14.11;58.75;93641.91;6245616;22;20011;-83
2022/04/01 00:24:24;;;;;;;18.23;2.92;;;;;;;13.45;57.05;93567.41;6244640;22;20050;-83
2022/04/01 00:26:50;;;;;;;14.00;3.08;;;;;;;13.84;59.18;93598.78;6243324;23;20008;-83
2022/04/01 00:29:15;;;;;;;18.90;3.03;;;;;;;14.05;58.91;93605.88;6243026;23;20020;-83
2022/04/01 00:31:45;;;;;;;20.75;2.22;;;;;;;13.39;57.09;93521.56;6243430;23;20027;-83
2022/04/01 00:34:18;;;;;;;9.75;2.13;;;;;;;14.06;56.93;93674.09;6241166;23;20035;-83
2022/04/01 00:36:45;;;;;;;13.98;2.03;;;;;;;13.83;56.53;93663.81;6244750;22;20024;-83
2022/04/01 00:39:12;;;;;;;13.20;1.80;;;;;;;13.52;57.01;93583.63;6244945;22;20004;-83
2022/04/01 00:41:38;;;;;;;14.85;2.13;;;;;;;13.82;58.07;93634.84;6244040;23;20043;-83
2022/04/01 00:44:34;;;;;;;7.60;1.80;;;;;;;13.32;59.11;93565.81;6242769;22;20020;-83
2022/04/01 00:47:02;;;;;;;8.63;1.52;;;;;;;13.01;57.48;93551.06;6243906;23;20007;-83
2022/04/01 00:49:29;;;;;;;16.25;2.65;;;;;;;13.89;58.43;93643.06;6243308;23;20019;-83
2022/04/01 00:52:04;;;;;;;11.63;1.88;;;;;;;13.69;56.70;93596.75;6245711;22;20058;-83
2022/04/01 00:54:30;;;;;;;10.80;2.67;;;;;;;13.96;59.32;93645.22;6244088;22;20008;-83
2022/04/01 00:56:55;;;;;;;17.92;3.47;;;;;;;13.86;56.80;93671.16;6245567;22;20023;-82
2022/04/01 00:59:22;;;;;;;11.88;2.10;;;;;;;13.46;56.91;93568.97;6245344;22;19999;-83
2022/04/01 01:01:49;;;;;;;13.20;2.20;;;;;;;13.60;56.75;93616.59;6243224;23;20015;-83
2022/04/01 01:04:16;;;;;;;12.80;2.25;;;;;;;13.83;58.96;93637.19;6241357;23;20018;-83
2022/04/01 01:06:54;;;;;;;16.98;2.58;;;;;;;13.96;56.87;93669.94;6243016;22;20008;-82
2022/04/01 01:09:21;;;;;;;15.55;2.22;;;;;;;13.47;58.49;93562.53;6240967;23;20012;-82
2022/04/01 01:11:49;;;;;;;10.05;2.33;;;;;;;13.69;59.59;93586.09;6241759;23;20015;-83
2022/04/01 01:14:21;;;;;;;14.55;2.03;;;;;;;13.83;58.41;93655.84;6243444;22;20075;-83
2022/04/01 01:16:47;;;;;;;7.70;2.13;;;;;;;13.79;58.88;93664.81;6241026;23;20014;-83
2022/04/01 01:19:16;;;;;;;15.57;2.28;;;;;;;13.72;58.78;93677.91;6241411;23;20091;-83
2022/04/01 01:21:43;;;;;;;9.18;1.77;;;;;;;13.05;58.34;93551.94;6240844;23;20091;-83
2022/04/01 01:24:17;;;;;;;14.85;2.30;;;;;;;13.30;59.02;93607.97;6242515;22;20004;-83
2022/04/01 01:26:48;;;;;;;11.73;2.25;;;;;;;12.52;60.28;93523.47;6242994;22;20069;-83
2022/04/01 01:29:18;;;;;;;10.85;2.15;;;;;;;12.96;59.27;93583.19;6240906;23;20119;-83
2022/04/01 01:31:46;;;;;;;12.48;2.90;;;;;;;13.63;59.67;93671.88;6241541;23;20014;-83
2022/04/01 01:34:12;;;;;;;14.20;3.13;;;;;;;13.16;59.19;93621.56;6244782;23;20352;-83
2022/04/01 01:36:38;;;;;;;10.65;2.47;;;;;;;13.67;60.80;93667.44;6242255;23;20091;-83
2022/04/01 01:39:04;;;;;;;14.73;2.60;;;;;;;12.98;60.69;93573.00;6239489;23;20028;-83
2022/04/01 01:41:30;;;;;;;33.88;4.50;;;;;;;12.91;58.20;93553.34;6239555;23;20008;-83
2022/04/01 01:43:56;;;;;;;57.65;7.88;;;;;;;13.52;58.02;93663.50;6239390;23;20131;-82
2022/04/01 01:46:21;;;;;;;72.72;8.43;;;;;;;13.75;56.51;93654.03;6241804;22;20007;-83
2022/04/01 01:48:47;;;;;;;28.85;4.75;;;;;;;12.63;57.48;93507.91;6239891;23;20412;-83
2022/04/01 01:56:42;;;;;;;63.80;9.48;;;;;;;13.31;58.35;93573.03;6249550;22;20054;-83
2022/04/01 01:59:11;;;;;;;35.97;6.78;;;;;;;12.89;59.09;93535.03;6254086;22;20000;-83
2022/04/01 02:01:38;;;;;;;45.47;7.22;;;;;;;13.18;58.61;93581.31;6255083;22;20012;-84
2022/04/01 02:04:03;;;;;;;42.65;7.22;;;;;;;12.86;60.19;93525.06;6254802;22;20438;-84
2022/04/01 02:06:29;;;;;;;56.97;9.40;;;;;;;11.98;59.59;93393.19;6244837;23;20107;-83
2022/04/01 02:08:55;;;;;;;52.28;9.38;;;;;;;12.76;59.66;93493.53;6244921;22;20011;-83
2022/04/01 02:11:21;;;;;;;53.55;8.30;;;;;;;13.16;60.38;93549.69;6245859;22;20154;-83
2022/04/01 02:13:48;;;;;;;54.88;10.40;;;;;;;13.37;60.56;93605.53;6244637;23;20423;-83
2022/04/01 02:16:14;;;;;;;48.55;10.65;;;;;;;12.73;61.17;93507.50;6242320;23;20497;-82
2022/04/01 02:18:40;;;;;;;50.60;10.15;;;;;;;12.67;59.83;93519.44;6244368;22;20427;-83
2022/04/01 02:21:10;;;;;;;62.63;9.65;;;;;;;12.48;60.84;93482.69;6242062;23;20070;-83
2022/04/01 02:23:40;;;;;;;58.40;11.20;;;;;;;13.41;57.72;93595.81;6243236;22;20019;-83
2022/04/01 02:26:07;;;;;;;78.18;11.32;;;;;;;13.21;58.56;93530.06;6244489;22;20012;-83
2022/04/01 02:28:34;;;;;;;74.13;11.82;;;;;;;13.09;58.60;93504.19;6245679;22;20043;-83
2022/04/01 02:31:00;;;;;;;97.25;13.20;;;;;;;12.64;55.94;93421.69;6242806;23;20034;-83
2022/04/01 02:33:27;;;;;;;78.65;12.80;;;;;;;13.46;55.12;93487.19;6242556;23;20023;-83
2022/04/01 02:35:54;;;;;;;78.85;12.05;;;;;;;13.59;55.73;93503.16;6242536;23;20016;-83
2022/04/01 02:38:20;;;;;;;107.25;14.55;;;;;;;12.75;56.11;93373.06;6244920;22;20086;-83
2022/04/01 02:40:45;;;;;;;109.25;14.90;;;;;;;13.68;56.58;93490.53;6244699;23;20015;-83
2022/04/01 02:43:11;;;;;;;84.80;13.75;;;;;;;13.24;54.55;93412.28;6243586;22;20185;-83
2022/04/01 02:45:36;;;;;;;91.30;13.13;;;;;;;13.35;57.04;93470.06;6244324;23;20035;-83
2022/04/01 02:48:05;;;;;;;89.60;13.05;;;;;;;13.45;55.58;93482.97;6241879;23;20012;-83
2022/04/01 02:50:30;;;;;;;126.55;16.27;;;;;;;13.98;54.45;93517.72;6242661;22;20011;-83
2022/04/01 02:52:56;;;;;;;121.60;15.50;;;;;;;13.32;52.73;93406.88;6244076;22;20072;-83
2022/04/01 02:55:22;;;;;;;83.00;13.43;;;;;;;13.55;55.78;93454.34;6242221;23;20036;-83
2022/04/01 02:57:47;;;;;;;72.78;11.70;;;;;;;13.44;55.95;93464.66;6242361;23;20015;-83
2022/04/01 03:00:21;;;;;;;93.93;13.73;;;;;;;13.18;58.57;93477.50;6242545;23;20066;-83
2022/04/01 03:02:50;;;;;;;90.70;12.85;;;;;;;13.69;57.29;93521.38;6242615;22;20385;-83
2022/04/01 03:05:17;;;;;;;92.78;13.13;;;;;;;12.99;58.06;93446.81;6242912;23;20016;-83
2022/04/01 03:07:44;;;;;;;90.22;12.88;;;;;;;13.32;56.91;93521.34;6242633;23;20008;-83
2022/04/01 03:10:10;;;;;;;93.25;13.57;;;;;;;13.03;57.45;93436.31;6242925;23;20004;-83
2022/04/01 03:12:36;;;;;;;80.30;13.57;;;;;;;13.19;57.42;93474.53;6244885;22;20525;-83
2022/04/01 03:15:02;;;;;;;79.65;13.13;;;;;;;13.41;57.58;93502.63;6243371;23;20012;-83
2022/04/01 03:17:29;;;;;;;84.50;12.85;;;;;;;12.97;56.57;93427.75;6243131;23;20023;-83
2022/04/01 03:19:54;;;;;;;87.95;12.07;;;;;;;13.35;56.78;93515.34;6244458;23;20023;-83
2022/04/01 03:22:20;;;;;;;83.32;11.80;;;;;;;12.85;57.56;93429.59;6244518;23;20006;-83
2022/04/01 03:24:46;;;;;;;75.40;12.32;;;;;;;13.30;56.70;93485.50;6244218;23;20042;-83
2022/04/01 03:27:13;;;;;;;86.15;11.38;;;;;;;13.20;57.76;93467.31;6247794;22;20083;-83
2022/04/01 03:29:38;;;;;;;80.22;11.82;;;;;;;12.84;57.20;93459.97;6246035;23;20008;-83
2022/04/01 03:32:04;;;;;;;83.30;13.07;;;;;;;12.56;57.48;93433.97;6247615;23;20043;-83
2022/04/01 03:34:32;;;;;;;95.05;13.95;;;;;;;12.57;57.91;93424.91;6245584;23;20004;-83
2022/04/01 03:36:58;;;;;;;110.97;14.35;;;;;;;13.05;57.39;93490.75;6248398;22;20592;-83
2022/04/01 03:39:24;;;;;;;120.20;14.50;;;;;;;12.95;57.86;93423.88;6246120;23;19996;-83
2022/04/01 03:41:50;;;;;;;99.15;12.63;;;;;;;13.60;58.16;93524.16;6248219;22;20454;-83
2022/04/01 03:44:17;;;;;;;93.65;13.02;;;;;;;13.30;56.68;93490.81;6245532;23;20102;-83
2022/04/01 03:47:15;;;;;;;78.57;12.57;;;;;;;13.52;56.27;93541.78;6247249;22;20079;-83
2022/04/01 03:49:51;;;;;;;96.13;13.77;;;;;;;13.30;58.14;93501.47;6235007;23;21644;-83
2022/04/01 03:52:19;;;;;;;85.00;12.75;;;;;;;12.57;56.60;93386.88;6247808;23;20018;-83
2022/04/01 03:54:47;;;;;;;90.03;13.30;;;;;;;12.76;56.90;93419.06;6249373;22;20073;-83
2022/04/01 03:57:15;;;;;;;70.20;11.13;;;;;;;13.50;56.77;93533.34;6249438;22;20391;-83
2022/04/01 03:59:41;;;;;;;77.30;12.70;;;;;;;13.19;57.91;93481.72;6247134;22;20435;-83
2022/04/01 04:02:12;;;;;;;89.00;12.02;;;;;;;12.28;58.45;93383.22;6247999;22;20008;-83
2022/04/01 04:04:39;;;;;;;99.63;14.80;;;;;;;12.25;59.24;93385.78;6251585;22;20065;-83
2022/04/01 04:07:09;;;;;;;115.03;15.73;;;;;;;13.03;58.96;93502.84;6248730;23;20243;-83
2022/04/01 04:09:38;;;;;;;103.45;15.07;;;;;;;12.13;58.58;93364.50;6246830;22;20026;-83
2022/04/01 04:12:06;;;;;;;104.25;14.77;;;;;;;11.77;59.33;93341.16;6246749;23;20008;-83
2022/04/01 04:14:33;;;;;;;107.00;13.75;;;;;;;12.79;58.35;93476.94;6245345;23;20021;-83
2022/04/01 04:17:08;;;;;;;85.70;13.32;;;;;;;11.94;58.99;93314.47;6247903;22;20116;-83
2022/04/01 04:19:46;;;;;;;81.90;12.00;;;;;;;13.11;58.58;93494.78;6247175;22;20497;-83
2022/04/01 04:22:13;;;;;;;107.30;14.55;;;;;;;12.62;59.39;93459.25;6246995;22;20019;-83
2022/04/01 04:24:43;;;;;;;86.68;14.75;;;;;;;12.04;62.18;93359.25;6246878;22;20506;-83
2022/04/01 04:27:16;;;;;;;104.35;14.25;;;;;;;12.44;60.60;93473.78;6243039;23;20540;-83
2022/04/01 04:29:50;;;;;;;87.07;13.35;;;;;;;12.54;60.38;93491.22;6244567;23;20035;-83
2022/04/01 04:32:59;;;;;;;87.50;15.00;;;;;;;13.05;61.07;93517.34;6243064;23;20024;-83
2022/04/01 04:35:26;;;;;;;103.18;15.80;;;;;;;13.03;61.54;93527.56;6242592;23;20032;-84
2022/04/01 04:37:55;;;;;;;94.88;14.57;;;;;;;12.81;60.04;93517.28;6243852;22;20016;-83
2022/04/01 04:40:21;;;;;;;92.05;15.23;;;;;;;12.56;60.99;93460.56;6245665;22;20439;-82
2022/04/01 04:42:50;;;;;;;90.63;16.20;;;;;;;12.49;60.43;93480.81;6244767;22;20008;-83
2022/04/01 04:45:17;;;;;;;90.38;14.27;;;;;;;12.21;61.46;93406.13;6240927;23;20376;-83
2022/04/01 04:47:43;;;;;;;80.60;12.82;;;;;;;12.35;61.20;93409.31;6242699;22;20039;-83
2022/04/01 04:50:09;;;;;;;99.35;14.73;;;;;;;12.52;60.36;93422.41;6241500;23;20061;-83
2022/04/01 04:52:34;;;;;;;103.43;13.65;;;;;;;12.53;60.49;93444.47;6243607;22;20018;-83
2022/04/01 04:55:02;;;;;;;83.97;15.07;;;;;;;12.45;60.63;93424.06;6243047;23;20012;-84
2022/04/01 04:57:28;;;;;;;77.85;12.95;;;;;;;12.98;60.88;93463.13;6241281;23;20068;-84
2022/04/01 04:59:57;;;;;;;106.07;15.18;;;;;;;12.66;60.82;93451.41;6238559;23;20012;-84
2022/04/01 05:02:42;;;;;;;96.70;16.73;;;;;;;13.16;61.52;93509.78;6240453;23;20004;-84
2022/04/01 05:05:09;;;;;;;99.70;15.52;;;;;;;12.54;60.76;93390.97;6241289;23;20016;-84
2022/04/01 05:07:55;;;;;;;89.63;15.38;;;;;;;13.34;60.25;93505.81;6240998;23;20018;-84
2022/04/01 05:10:27;;;;;;;102.60;15.82;;;;;;;13.23;60.64;93517.22;6240486;23;20042;-84
2022/04/01 05:13:07;;;;;;;93.00;14.60;;;;;;;13.35;59.45;93512.69;6234276;23;20075;-85
2022/04/01 05:15:36;;;;;;;115.20;15.48;;;;;;;12.41;60.61;93359.38;6239564;23;20015;-84
2022/04/01 05:18:15;;;;;;;104.93;16.23;;;;;;;13.59;60.08;93500.50;6240564;23;20020;-84
2022/04/01 05:21:13;;;;;;;105.57;16.05;;;;;;;13.55;59.31;93486.31;6241933;23;20039;-84
2022/04/01 05:23:50;;;;;;;94.07;14.52;;;;;;;13.36;58.80;93453.00;6240923;23;20147;-84
2022/04/01 05:26:23;;;;;;;106.47;12.85;;;;;;;13.20;57.05;93459.31;6240179;23;20464;-84
2022/04/01 05:28:53;;;;;;;101.13;13.63;;;;;;;13.62;57.52;93471.31;6242077;22;20008;-84
2022/04/01 05:31:46;;;;;;;98.53;14.45;;;;;;;13.68;58.38;93477.19;6243667;23;20008;-85
2022/04/01 05:34:36;;;;;;;92.55;12.88;;;;;;;13.55;56.76;93484.41;6245780;23;20031;-83
2022/04/01 05:37:02;;;;;;;103.97;12.73;;;;;;;13.27;56.32;93428.38;6238836;22;20115;-83
2022/04/01 05:39:29;;;;;;;101.97;13.15;;;;;;;13.55;57.72;93451.69;6240334;23;20004;-83
2022/04/01 05:41:56;;;;;;;92.85;13.07;;;;;;;13.48;57.16;93463.69;6241753;23;20004;-83
2022/04/01 05:44:24;;;;;;;111.85;13.75;;;;;;;12.49;57.11;93311.41;6240668;22;20024;-83
2022/04/01 05:46:54;;;;;;;93.13;13.48;;;;;;;13.65;56.99;93489.31;6241135;23;20288;-83
2022/04/01 05:49:21;;;;;;;90.47;14.35;;;;;;;13.93;57.06;93496.63;6240205;23;20012;-83
2022/04/01 05:51:48;;;;;;;103.20;13.27;;;;;;;13.62;57.46;93444.69;6238285;23;20442;-86
2022/04/01 05:54:19;;;;;;;95.95;13.68;;;;;;;13.23;57.24;93416.06;6239654;23;20451;-85
2022/04/01 05:56:49;;;;;;;89.22;13.05;;;;;;;13.57;58.05;93484.88;6241567;23;20073;-84
2022/04/01 05:59:20;;;;;;;114.70;24.20;;;;;;;12.80;56.91;93372.09;6241500;22;20064;-85
2022/04/01 06:02:10;;;;;;;100.18;18.25;;;;;;;13.69;58.20;93460.88;6234533;22;20004;-87
2022/04/01 06:05:09;;;;;;;97.88;15.20;;;;;;;13.62;58.10;93462.56;6240889;23;20487;-87
2022/04/01 06:07:44;;;;;;;94.85;16.20;;;;;;;13.68;57.70;93477.97;6224007;23;20020;-87
2022/04/01 06:10:47;;;;;;;86.82;15.52;;;;;;;13.72;58.21;93484.22;6235527;23;20456;-88
2022/04/01 06:13:26;;;;;;;99.32;15.43;;;;;;;13.22;57.40;93386.00;6237544;22;20458;-87
2022/04/01 06:16:06;;;;;;;110.97;17.10;;;;;;;13.83;57.15;93479.97;6237432;23;20135;-87
2022/04/01 06:18:53;;;;;;;104.80;16.75;;;;;;;12.98;57.36;93352.13;6238800;23;20099;-87
2022/04/01 06:21:24;;;;;;;106.78;16.13;;;;;;;13.20;57.25;93379.47;6238496;23;20093;-87
2022/04/01 06:24:07;;;;;;;88.93;14.93;;;;;;;13.73;56.72;93456.44;6239212;22;20004;-87
2022/04/01 06:26:51;;;;;;;86.03;13.18;;;;;;;14.15;56.17;93491.59;6240666;22;20495;-88
2022/04/01 06:29:35;;;;;;;82.90;14.57;;;;;;;14.34;56.65;93490.25;6239374;22;20103;-88
2022/04/01 06:32:07;;;;;;;93.88;14.10;;;;;;;13.88;56.52;93439.75;6238499;23;20414;-87
2022/04/01 06:35:14;;;;;;;104.45;16.77;;;;;;;14.40;56.57;93495.03;6238744;22;20277;-88
2022/04/01 06:38:07;;;;;;;94.15;15.20;;;;;;;14.32;56.18;93487.91;6239228;22;20012;-88
2022/04/01 06:40:55;;;;;;;93.57;14.98;;;;;;;14.49;55.89;93511.69;6238417;23;20008;-88
2022/04/01 06:43:22;;;;;;;113.75;15.38;;;;;;;14.35;55.53;93494.44;6238348;23;20020;-87
2022/04/01 06:45:47;;;;;;;110.13;16.73;;;;;;;14.45;54.84;93478.78;6237942;23;20047;-88
2022/04/01 06:48:13;;;;;;;112.85;15.07;;;;;;;13.86;54.79;93358.63;6237741;23;20458;-88
2022/04/01 06:50:38;;;;;;;95.78;15.00;;;;;;;14.54;54.45;93468.75;6238739;23;20083;-88
2022/04/01 06:53:05;;;;;;;107.85;15.45;;;;;;;14.21;53.74;93452.16;6240077;22;20015;-88
2022/04/01 06:55:31;;;;;;;130.25;17.73;;;;;;;14.06;54.56;93379.00;6238225;23;20141;-88
2022/04/01 06:57:56;;;;;;;121.72;14.85;;;;;;;13.69;53.75;93302.94;6235776;23;20350;-87
2022/04/01 07:00:22;;;;;;;120.43;16.67;;;;;;;14.22;53.57;93393.16;6237371;23;20332;-87
2022/04/01 07:02:49;;;;;;;108.97;14.63;;;;;;;13.78;53.82;93308.91;6238410;23;20043;-86
2022/04/01 07:05:14;;;;;;;109.00;16.58;;;;;;;14.65;54.05;93445.78;6239447;22;20019;-88
2022/04/01 07:07:44;;;;;;;96.43;14.00;;;;;;;15.19;52.96;93517.38;6238714;22;20035;-88
2022/04/01 07:10:13;;;;;;;96.85;15.02;;;;;;;15.07;52.87;93480.09;6239150;22;20153;-88
2022/04/01 07:12:40;;;;;;;106.32;15.98;;;;;;;15.31;52.15;93495.19;6240126;22;20471;-86
2022/04/01 07:15:07;;;;;;;102.68;15.25;;;;;;;13.41;52.40;93215.03;6236841;23;20080;-87
2022/04/01 07:17:33;;;;;;;114.07;17.20;;;;;;;15.27;51.37;93468.38;6237144;23;20363;-87
2022/04/01 07:19:59;;;;;;;100.53;16.48;;;;;;;14.78;51.07;93385.16;6237628;23;20012;-87
2022/04/01 07:22:25;;;;;;;114.57;18.23;;;;;;;15.31;51.62;93453.25;6232467;23;20510;-86
2022/04/01 07:24:50;;;;;;;105.40;15.85;;;;;;;15.37;51.71;93427.81;6234760;22;20012;-87
2022/04/01 07:27:22;;;;;;;117.95;16.85;;;;;;;15.79;50.55;93486.84;6236944;23;20004;-87
2022/04/01 07:29:48;;;;;;;107.03;15.95;;;;;;;15.18;49.30;93373.56;6239946;23;20019;-88
2022/04/01 07:32:34;;;;;;;113.60;15.38;;;;;;;15.73;50.16;93469.53;6238590;23;20000;-87
2022/04/01 07:35:04;;;;;;;108.70;16.27;;;;;;;16.04;49.21;93495.44;6235279;23;20004;-87
2022/04/01 07:37:31;;;;;;;115.93;16.65;;;;;;;16.17;49.29;93498.81;6235687;23;20011;-86
2022/04/01 07:39:57;;;;;;;101.03;14.57;;;;;;;15.59;47.64;93409.63;6237095;23;20012;-87
2022/04/01 07:42:23;;;;;;;118.05;16.20;;;;;;;15.77;47.88;93411.59;6238007;23;20019;-86
2022/04/01 07:44:49;;;;;;;119.43;14.50;;;;;;;15.83;47.93;93404.09;6241284;22;20024;-86
2022/04/01 07:47:15;;;;;;;113.60;16.33;;;;;;;16.10;47.46;93421.06;6236625;23;20014;-86
2022/04/01 07:49:44;;;;;;;119.32;14.43;;;;;;;16.43;47.42;93460.75;6237258;23;20019;-87
2022/04/01 07:52:11;;;;;;;114.18;19.25;;;;;;;16.66;48.05;93482.25;6237659;23;20012;-87
2022/04/01 07:54:42;;;;;;;99.60;16.10;;;;;;;15.87;46.80;93364.09;6236656;23;20092;-87
2022/04/01 07:57:08;;;;;;;116.03;16.50;;;;;;;16.37;47.25;93420.13;6237398;23;20062;-87
2022/04/01 07:59:35;;;;;;;103.85;16.08;;;;;;;16.77;47.15;93461.84;6239544;22;20001;-87
2022/04/01 08:02:02;;;;;;;132.15;18.63;;;;;;;16.43;46.62;93429.41;6237901;23;20008;-87
2022/04/01 08:04:27;;;;;;;121.78;17.25;;;;;;;16.93;46.16;93494.69;6238134;23;20358;-87
2022/04/01 08:06:54;;;;;;;121.80;15.95;;;;;;;16.75;46.10;93458.75;6238575;23;20008;-87
2022/04/01 08:09:19;;;;;;;129.73;17.30;;;;;;;16.82;46.53;93526.59;6237058;23;20066;-86
2022/04/01 08:11:45;;;;;;;119.53;16.23;;;;;;;16.57;45.90;93474.41;6239938;22;20012;-87
2022/04/01 08:14:10;;;;;;;144.18;19.15;;;;;;;16.24;46.90;93434.00;6238441;23;20518;-86
2022/04/01 08:16:36;;;;;;;147.18;17.30;;;;;;;16.55;46.79;93449.94;6241208;23;20012;-87
2022/04/01 08:19:03;;;;;;;124.43;18.58;;;;;;;16.83;47.81;93524.69;6241294;23;20011;-87
2022/04/01 08:21:30;;;;;;;118.32;15.98;;;;;;;16.99;42.29;93512.00;6243285;22;20008;-87
2022/04/01 08:23:57;;;;;;;146.48;18.98;;;;;;;16.44;44.37;93432.88;6233718;23;20004;-87
2022/04/01 08:26:24;;;;;;;130.05;15.93;;;;;;;16.91;42.05;93478.19;6240650;23;20012;-87
2022/04/01 08:28:50;;;;;;;107.75;16.10;;;;;;;16.69;40.93;93442.19;6240194;23;20012;-85
2022/04/01 08:31:16;;;;;;;108.20;14.13;;;;;;;17.46;39.78;93484.94;6238365;23;20440;-85
2022/04/01 08:33:41;;;;;;;113.80;14.18;;;;;;;17.18;40.25;93447.69;6240494;23;20020;-85
2022/04/01 08:36:07;;;;;;;109.20;14.52;;;;;;;17.08;39.68;93383.25;6239164;23;20043;-86
2022/04/01 08:38:33;;;;;;;126.95;16.23;;;;;;;17.83;38.88;93454.91;6238198;23;20099;-86
2022/04/01 08:40:59;;;;;;;112.45;15.25;;;;;;;17.17;38.78;93340.88;6240006;23;20008;-86
2022/04/01 08:43:30;;;;;;;133.05;14.90;;;;;;;18.19;38.43;93474.97;6239728;23;20028;-85
2022/04/01 08:45:58;;;;;;;103.38;13.18;;;;;;;17.85;38.52;93418.53;6245124;23;20016;-86
2022/04/01 08:48:24;;;;;;;96.85;14.20;;;;;;;18.30;38.59;93474.00;6251847;22;20015;-84
2022/04/01 08:50:50;;;;;;;117.78;15.35;;;;;;;18.07;38.41;93417.72;6255621;23;20406;-85
2022/04/01 08:53:16;;;;;;;115.40;15.60;;;;;;;18.47;39.02;93462.72;6257797;23;20467;-86
2022/04/01 08:55:47;;;;;;;110.13;15.15;;;;;;;18.55;38.19;93476.22;6258650;23;20069;-86
2022/04/01 08:58:16;;;;;;;104.03;12.73;;;;;;;17.86;38.42;93397.84;6254454;23;20066;-88
2022/04/01 09:00:42;;;;;;;115.15;13.88;;;;;;;16.67;38.37;93184.84;6244184;23;20042;-86
2022/04/01 09:03:09;;;;;;;124.78;16.35;;;;;;;17.49;39.31;93301.97;6242792;23;20007;-85
2022/04/01 09:05:35;;;;;;;117.93;13.48;;;;;;;18.31;38.78;93391.59;6242250;23;20016;-85
2022/04/01 09:08:06;;;;;;;90.97;13.43;;;;;;;18.30;38.86;93392.72;6241597;23;20020;-85
2022/04/01 09:10:52;;;;;;;125.60;14.20;;;;;;;18.40;39.28;93422.34;6242771;22;20008;-86
2022/04/01 09:13:18;;;;;;;103.55;15.77;;;;;;;18.54;39.96;93431.75;6239583;23;20011;-86
2022/04/01 09:15:44;;;;;;;90.05;13.85;;;;;;;17.96;39.26;93370.44;6242917;22;20042;-86
2022/04/01 09:18:11;;;;;;;131.68;14.98;;;;;;;18.62;40.38;93446.81;6242014;22;20022;-86
2022/04/01 09:20:50;;;;;;;100.13;12.98;;;;;;;18.86;41.02;93435.59;6241214;23;20082;-86
2022/04/01 09:23:23;;;;;;;99.70;13.93;;;;;;;18.53;41.08;93377.28;6236768;23;20443;-86
2022/04/01 09:25:50;;;;;;;118.43;15.45;;;;;;;18.84;38.56;93411.78;6238854;23;20004;-86
2022/04/01 09:28:31;;;;;;;87.55;13.80;;;;;;;18.31;38.38;93325.25;6235039;23;20131;-86
2022/04/01 09:31:12;;;;;;;100.25;13.55;;;;;;;18.37;38.58;93361.38;6233347;23;20502;-86
2022/04/01 09:33:43;;;;;;;125.25;16.00;;;;;;;18.84;38.82;93424.47;6234910;23;20012;-86
2022/04/01 09:36:26;;;;;;;;;;;;;;;18.68;39.34;93407.78;6239332;23;20414;-86
2022/04/01 09:39:04;;;;;;;105.75;13.63;;;;;;;18.44;39.90;93390.22;6238937;23;20314;-87
2022/04/01 09:41:31;;;;;;;100.68;13.40;;;;;;;18.60;39.89;93396.19;6238370;23;20358;-86
2022/04/01 09:44:12;;;;;;;106.07;13.48;;;;;;;18.18;40.00;93328.53;6236539;23;20024;-86
2022/04/01 09:46:59;;;;;;;93.05;12.60;;;;;;;18.77;39.20;93418.97;6238133;23;20008;-85
2022/04/01 09:49:28;;;;;;;87.38;13.23;;;;;;;17.88;39.42;93307.88;6237614;23;20404;-86
2022/04/01 09:51:54;;;;;;;100.68;13.30;;;;;;;18.28;39.05;93317.94;6239153;23;20008;-86
2022/04/01 09:54:19;;;;;;;104.28;13.40;;;;;;;18.21;39.07;93314.41;6236446;23;20095;-86
2022/04/01 09:56:49;;;;;;;95.68;14.25;;;;;;;18.81;38.98;93401.78;6237521;23;20039;-86
2022/04/01 09:59:16;;;;;;;101.22;13.40;;;;;;;18.27;38.42;93297.63;6238334;23;20004;-86
2022/04/01 10:01:43;;;;;;;98.18;15.07;;;;;;;18.64;38.22;93364.75;6216672;23;20012;-86
2022/04/01 10:04:10;;;;;;;103.82;13.95;;;;;;;18.78;38.03;93340.75;6236512;23;20303;-86
2022/04/01 10:06:36;;;;;;;98.13;14.32;;;;;;;18.63;37.25;93265.78;6229063;23;20115;-86
2022/04/01 10:09:05;;;;;;;107.95;15.25;;;;;;;19.91;37.02;93381.22;6234717;23;20020;-86
2022/04/01 10:11:31;;;;;;;99.70;14.30;;;;;;;19.91;37.02;93381.22;6232888;22;20023;-86
2022/04/01 10:14:15;;;;;;;95.65;14.48;;;;;;;20.36;34.51;93350.38;6236608;23;20020;-86
2022/04/01 10:16:43;;;;;;;91.20;13.77;;;;;;;19.36;34.35;93151.19;6238037;22;20028;-86
2022/04/01 10:19:16;;;;;;;96.63;14.07;;;;;;;18.60;33.49;93028.41;6235491;23;20050;-86
2022/04/01 10:21:43;;;;;;;85.40;12.50;;;;;;;19.80;34.57;93317.75;6234875;23;20077;-86
2022/04/01 10:24:31;;;;;;;94.72;13.45;;;;;;;19.94;34.41;93264.03;6240583;23;20028;-86
2022/04/01 10:27:09;;;;;;;106.20;15.73;;;;;;;20.99;34.80;93385.94;6241476;22;20469;-86
2022/04/01 10:29:35;;;;;;;99.97;14.82;;;;;;;21.39;33.90;93330.94;6237089;23;20016;-86
2022/04/01 10:32:22;;;;;;;102.50;15.30;;;;;;;22.19;32.36;93323.91;6238105;23;20012;-86
2022/04/01 10:34:49;;;;;;;112.90;15.10;;;;;;;23.06;32.06;93396.88;6236479;23;20008;-86
2022/04/01 10:37:16;;;;;;;101.07;13.70;;;;;;;22.57;31.20;93308.69;6235948;23;20086;-86
2022/04/01 10:39:57;;;;;;;94.57;13.55;;;;;;;22.90;31.69;93412.00;6235290;23;20270;-87
2022/04/01 10:42:31;;;;;;;105.22;13.00;;;;;;;23.03;30.75;93365.22;6234656;23;20317;-87
2022/04/01 10:45:00;;;;;;;102.55;13.23;;;;;;;22.48;31.29;93164.44;6233172;22;20116;-86
2022/04/01 10:53:31;;;;;;;99.15;14.32;;;;;;;25.33;29.65;93362.13;6234277;23;20086;-86
2022/04/01 10:56:24;;;;;;;101.78;13.75;;;;;;;25.15;29.55;93363.56;6234634;23;20443;-86
2022/04/01 10:59:07;;;;;;;84.05;15.30;;;;;;;25.02;29.58;93374.22;6237685;23;20419;-86
2022/04/01 11:01:38;;;;;;;101.75;13.43;;;;;;;25.44;28.58;93313.13;6236198;23;20070;-85
2022/04/01 11:04:12;;;;;;;118.55;16.17;;;;;;;25.44;28.58;93313.13;6237753;22;20031;-86
2022/04/01 11:06:57;;;;;;;98.30;13.68;;;;;;;26.33;27.17;93322.47;6236555;23;20018;-86
2022/04/01 11:09:32;;;;;;;89.72;13.38;;;;;;;26.25;27.15;93272.13;6237434;22;20016;-86
2022/04/01 11:12:16;;;;;;;103.38;13.70;;;;;;;26.89;26.65;93318.59;6236545;23;20081;-87
2022/04/01 11:14:56;;;;;;;84.55;12.35;;;;;;;26.84;26.29;93316.38;6235861;23;20518;-86
2022/04/01 11:17:34;;;;;;;97.05;13.73;;;;;;;27.24;25.98;93310.84;6237286;23;20011;-85
2022/04/01 11:20:14;;;;;;;117.88;14.68;;;;;;;27.40;25.45;93280.94;6236363;22;20114;-86
2022/04/01 11:22:53;;;;;;;90.95;12.48;;;;;;;27.32;26.30;93322.34;6235258;23;20012;-87
2022/04/01 11:25:24;;;;;;;83.25;11.40;;;;;;;27.30;24.83;93338.34;6238825;22;20083;-87
2022/04/01 11:27:57;;;;;;;94.47;12.55;;;;;;;27.27;24.50;93339.97;6236389;23;20051;-88
2022/04/01 11:31:06;;;;;;;76.30;11.73;;;;;;;24.79;27.02;93181.63;6239199;22;20015;-86
2022/04/01 11:33:33;;;;;;;98.55;12.57;;;;;;;25.86;25.76;93351.66;6238351;22;20015;-87
2022/04/01 11:35:58;;;;;;;69.38;11.98;;;;;;;25.07;26.58;93333.06;6238765;22;20114;-87
2022/04/01 11:38:26;;;;;;;71.95;12.07;;;;;;;24.04;27.24;93317.25;6237515;23;20044;-85
2022/04/01 11:40:56;;;;;;;77.75;11.52;;;;;;;23.42;28.75;93332.47;6237842;23;20074;-85
2022/04/01 11:43:23;;;;;;;94.25;12.88;;;;;;;22.41;30.03;93326.53;6238093;23;20028;-85